Time;durP1;ratioP1;P1;durP2;ratioP2;P2;SDS_P1;SDS_P2;PMS_P1;PMS_P2;Temp;Humidity;BMP_temperature;BMP_pressure;BME280_temperature;BME280_humidity;BME280_pressure;Samples;Min_cycle;Max_cycle;Signal;HPM_P1;HPM_P2
2022/07/09 00:01:26;;;;;;;1.85;0.60;;;19.50;99.90;;;;;;5095168;28;20028;-79
2022/07/09 00:03:52;;;;;;;0.63;0.63;;;19.40;99.90;;;;;;5095101;28;20031;-79
2022/07/09 00:06:19;;;;;;;0.10;0.10;;;19.40;99.90;;;;;;5095139;28;20043;-79
2022/07/09 00:08:44;;;;;;;0.10;0.10;;;19.40;99.90;;;;;;5096024;28;20032;-79
2022/07/09 00:11:10;;;;;;;0.13;0.13;;;19.50;99.90;;;;;;5096241;28;20043;-80
2022/07/09 00:13:36;;;;;;;0.50;0.50;;;19.50;99.90;;;;;;5095011;28;20028;-80
2022/07/09 00:16:02;;;;;;;0.00;0.00;;;19.50;99.90;;;;;;5094569;28;20127;-79
2022/07/09 00:18:28;;;;;;;0.17;0.17;;;19.50;99.90;;;;;;5094644;28;20074;-80
2022/07/09 00:20:55;;;;;;;0.52;0.52;;;19.60;99.90;;;;;;5094473;28;20024;-80
2022/07/09 00:23:21;;;;;;;1.55;0.57;;;19.60;99.90;;;;;;5094712;28;20031;-80
2022/07/09 00:25:46;;;;;;;0.45;0.45;;;19.70;99.90;;;;;;5096261;28;20020;-80
2022/07/09 00:28:12;;;;;;;9.98;1.17;;;19.70;99.90;;;;;;5096082;28;20020;-80
2022/07/09 00:30:38;;;;;;;0.25;0.25;;;19.60;99.90;;;;;;5095608;28;20115;-79
2022/07/09 00:33:03;;;;;;;0.43;0.20;;;19.70;99.90;;;;;;5094688;28;20032;-79
2022/07/09 00:35:29;;;;;;;0.70;0.63;;;19.70;99.90;;;;;;5095866;28;20020;-80
2022/07/09 00:37:55;;;;;;;0.55;0.35;;;19.70;99.90;;;;;;5094469;28;20523;-80
2022/07/09 00:40:21;;;;;;;0.63;0.38;;;19.70;99.90;;;;;;5095572;28;20020;-80
2022/07/09 00:42:46;;;;;;;1.92;0.82;;;19.70;99.90;;;;;;5093898;28;20050;-81
2022/07/09 00:45:12;;;;;;;0.25;0.25;;;19.70;99.90;;;;;;5095358;28;20032;-80
2022/07/09 00:47:38;;;;;;;0.47;0.40;;;19.70;99.90;;;;;;5095483;28;20031;-80
2022/07/09 00:50:04;;;;;;;0.30;0.30;;;19.60;99.90;;;;;;5094692;28;20391;-80
2022/07/09 00:52:31;;;;;;;0.40;0.40;;;19.60;99.90;;;;;;5095434;28;20020;-80
2022/07/09 00:54:59;;;;;;;0.17;0.17;;;19.60;99.90;;;;;;5095520;28;20095;-81
2022/07/09 00:57:25;;;;;;;0.30;0.30;;;19.50;99.90;;;;;;5094232;28;20020;-81
2022/07/09 00:59:51;;;;;;;0.98;0.85;;;19.40;99.90;;;;;;5095405;28;20036;-81
2022/07/09 01:02:19;;;;;;;0.45;0.45;;;19.30;99.90;;;;;;5095544;28;20020;-81
2022/07/09 01:04:45;;;;;;;0.47;0.22;;;19.10;99.90;;;;;;5093924;28;20024;-81
2022/07/09 01:07:10;;;;;;;0.10;0.10;;;19.20;99.90;;;;;;5093639;28;20028;-81
2022/07/09 01:09:37;;;;;;;0.00;0.00;;;19.10;99.90;;;;;;5095085;28;20522;-81
2022/07/09 01:12:03;;;;;;;0.20;0.20;;;19.10;99.90;;;;;;5093735;28;20467;-81
2022/07/09 01:14:28;;;;;;;0.70;0.70;;;19.10;99.90;;;;;;5094923;28;20024;-81
2022/07/09 01:17:02;;;;;;;0.25;0.25;;;19.10;99.90;;;;;;5095002;28;20113;-81
2022/07/09 01:19:28;;;;;;;0.03;0.03;;;19.10;99.90;;;;;;5093640;28;20024;-81
2022/07/09 01:21:54;;;;;;;0.30;0.30;;;19.10;99.90;;;;;;5094996;28;20036;-82
2022/07/09 01:24:21;;;;;;;0.30;0.30;;;19.10;99.90;;;;;;5094807;28;20031;-82
2022/07/09 01:26:47;;;;;;;0.75;0.75;;;19.10;99.90;;;;;;5094610;28;20404;-81
2022/07/09 01:29:13;;;;;;;0.22;0.20;;;19.10;99.90;;;;;;5092476;28;20012;-81
2022/07/09 01:31:38;;;;;;;0.43;0.40;;;19.10;99.90;;;;;;5094154;28;20107;-80
2022/07/09 01:34:04;;;;;;;0.20;0.20;;;19.10;99.90;;;;;;5110235;28;20027;-80
2022/07/09 01:36:30;;;;;;;0.00;0.00;;;19.00;99.90;;;;;;5094916;28;20081;-81
2022/07/09 01:38:55;;;;;;;0.00;0.00;;;18.90;99.90;;;;;;5094916;28;20041;-80
2022/07/09 01:41:21;;;;;;;0.20;0.20;;;18.90;99.90;;;;;;5110230;28;20114;-80
2022/07/09 01:43:47;;;;;;;0.32;0.32;;;18.80;99.90;;;;;;5094154;28;20456;-81
2022/07/09 01:46:12;;;;;;;0.30;0.30;;;18.70;99.90;;;;;;5093136;28;20016;-81
2022/07/09 01:48:42;;;;;;;0.38;0.38;;;18.70;99.90;;;;;;5094208;28;20053;-81
2022/07/09 01:51:12;;;;;;;0.10;0.10;;;18.70;99.90;;;;;;5093231;28;20046;-81
2022/07/09 01:53:39;;;;;;;0.03;0.03;;;18.60;99.90;;;;;;5093675;28;20302;-81
2022/07/09 01:56:07;;;;;;;0.25;0.25;;;18.50;99.90;;;;;;5109973;28;20097;-81
2022/07/09 01:58:33;;;;;;;0.17;0.17;;;18.40;99.90;;;;;;5092978;28;20031;-81
2022/07/09 02:00:59;;;;;;;0.00;0.00;;;18.30;99.90;;;;;;5092701;28;20027;-82
2022/07/09 02:03:24;;;;;;;0.28;0.28;;;18.40;99.90;;;;;;5092874;28;20028;-81
2022/07/09 02:05:50;;;;;;;0.28;0.25;;;18.30;99.90;;;;;;5092859;28;20016;-81
2022/07/09 02:08:16;;;;;;;1.17;1.08;;;18.30;99.90;;;;;;5092697;28;20378;-82
2022/07/09 02:10:41;;;;;;;0.25;0.25;;;18.20;99.90;;;;;;5109536;28;20081;-81
2022/07/09 02:13:07;;;;;;;0.52;0.52;;;18.20;99.90;;;;;;5093999;28;20024;-81
2022/07/09 02:15:33;;;;;;;0.52;0.30;;;18.30;99.90;;;;;;5092462;28;20034;-82
2022/07/09 02:17:59;;;;;;;0.28;0.28;;;18.20;99.90;;;;;;5093853;28;20035;-82
2022/07/09 02:20:25;;;;;;;0.17;0.17;;;18.20;99.90;;;;;;5092559;28;20020;-81
2022/07/09 02:22:51;;;;;;;0.30;0.10;;;18.30;99.90;;;;;;5093893;28;20048;-81
2022/07/09 02:25:17;;;;;;;0.63;0.63;;;18.20;99.90;;;;;;5092610;28;20447;-81
2022/07/09 02:27:43;;;;;;;0.52;0.40;;;18.20;99.90;;;;;;5092664;28;20484;-80
2022/07/09 02:30:09;;;;;;;0.17;0.17;;;18.20;99.90;;;;;;5092505;28;20020;-80
2022/07/09 02:32:36;;;;;;;0.00;0.00;;;18.20;99.90;;;;;;5092433;28;20103;-80
2022/07/09 02:35:02;;;;;;;0.88;0.73;;;18.20;99.90;;;;;;5092523;28;20467;-80
2022/07/09 02:37:28;;;;;;;0.15;0.15;;;18.30;99.90;;;;;;5092524;28;20119;-81
2022/07/09 02:39:54;;;;;;;0.82;0.38;;;18.30;99.90;;;;;;5090552;28;20456;-80
2022/07/09 02:42:19;;;;;;;1.20;0.95;;;18.30;99.90;;;;;;5092384;28;20020;-81
2022/07/09 02:44:45;;;;;;;0.13;0.13;;;18.40;99.90;;;;;;5093384;28;20513;-81
2022/07/09 02:47:10;;;;;;;0.65;0.65;;;18.40;99.90;;;;;;5092209;28;20035;-81
2022/07/09 02:49:36;;;;;;;0.17;0.17;;;18.40;99.90;;;;;;5093587;28;20027;-80
2022/07/09 02:52:02;;;;;;;0.22;0.22;;;18.40;99.90;;;;;;5092329;28;20024;-81
2022/07/09 02:54:28;;;;;;;0.28;0.28;;;18.40;99.90;;;;;;5092065;28;20486;-81
2022/07/09 02:56:54;;;;;;;0.50;0.50;;;18.40;99.90;;;;;;5092373;28;20047;-80
2022/07/09 02:59:20;;;;;;;0.60;0.60;;;18.50;99.90;;;;;;5093575;28;20086;-80
2022/07/09 03:01:46;;;;;;;0.35;0.32;;;18.50;99.90;;;;;;5093463;28;20447;-80
2022/07/09 03:04:13;;;;;;;0.38;0.38;;;18.50;99.90;;;;;;5093571;28;20043;-80
2022/07/09 03:06:38;;;;;;;0.32;0.32;;;18.50;99.90;;;;;;5096092;28;20020;-80
2022/07/09 03:09:04;;;;;;;0.63;0.30;;;18.60;99.90;;;;;;5097370;28;20086;-80
2022/07/09 03:11:30;;;;;;;1.27;0.55;;;18.70;99.90;;;;;;5097449;28;20493;-80
2022/07/09 03:13:55;;;;;;;0.47;0.47;;;18.70;99.90;;;;;;5096202;28;20548;-80
2022/07/09 03:16:21;;;;;;;0.43;0.43;;;18.80;99.90;;;;;;5096323;28;20060;-81
2022/07/09 03:18:47;;;;;;;0.47;0.47;;;18.90;99.90;;;;;;5096124;28;20024;-80
2022/07/09 03:21:12;;;;;;;0.10;0.10;;;18.90;99.90;;;;;;5097190;28;20036;-81
2022/07/09 03:23:39;;;;;;;0.43;0.28;;;19.00;99.90;;;;;;5095820;28;20078;-80
2022/07/09 03:26:06;;;;;;;0.55;0.55;;;19.10;99.90;;;;;;5097287;28;20027;-80
2022/07/09 03:28:33;;;;;;;0.40;0.30;;;19.20;99.90;;;;;;5097207;28;20016;-80
2022/07/09 03:30:58;;;;;;;0.50;0.50;;;19.20;99.90;;;;;;5095756;28;20016;-81
2022/07/09 03:33:24;;;;;;;0.55;0.45;;;19.30;99.90;;;;;;5097051;28;20031;-81
2022/07/09 03:35:50;;;;;;;0.40;0.40;;;19.30;99.90;;;;;;5095665;28;20023;-81
2022/07/09 03:38:15;;;;;;;0.73;0.73;;;19.30;99.90;;;;;;5095613;28;20020;-80
2022/07/09 03:40:41;;;;;;;0.30;0.30;;;19.40;99.90;;;;;;5096851;28;20024;-81
2022/07/09 03:43:07;;;;;;;1.95;1.10;;;19.40;99.90;;;;;;5096643;28;20083;-80
2022/07/09 03:45:32;;;;;;;0.17;0.17;;;19.30;99.90;;;;;;5096653;28;20024;-80
2022/07/09 03:47:58;;;;;;;0.30;0.30;;;19.20;99.90;;;;;;5095575;28;20480;-80
2022/07/09 03:50:24;;;;;;;0.30;0.30;;;19.20;99.90;;;;;;5092317;28;20028;-80
2022/07/09 03:52:49;;;;;;;0.10;0.10;;;19.10;99.90;;;;;;5112270;28;20107;-80
2022/07/09 03:55:15;;;;;;;0.20;0.20;;;19.10;99.90;;;;;;5096643;28;20020;-81
2022/07/09 03:57:42;;;;;;;0.25;0.25;;;19.10;99.90;;;;;;5095373;28;20441;-80
2022/07/09 04:00:08;;;;;;;0.40;0.40;;;19.10;99.90;;;;;;5095285;28;20120;-81
2022/07/09 04:02:33;;;;;;;1.08;0.63;;;19.10;99.90;;;;;;5096183;28;20039;-80
2022/07/09 04:04:59;;;;;;;0.17;0.17;;;19.30;99.90;;;;;;5096408;28;20024;-80
2022/07/09 04:07:26;;;;;;;0.10;0.10;;;19.30;99.90;;;;;;5096345;28;20023;-81
2022/07/09 04:09:54;;;;;;;0.52;0.52;;;19.40;99.90;;;;;;5096455;28;20020;-81
2022/07/09 04:12:20;;;;;;;0.40;0.40;;;19.40;99.90;;;;;;5096427;28;20081;-81
2022/07/09 04:14:46;;;;;;;0.20;0.20;;;19.50;99.90;;;;;;5096270;28;20388;-80
2022/07/09 04:17:12;;;;;;;0.35;0.35;;;19.70;99.90;;;;;;5095930;28;20031;-80
2022/07/09 04:19:38;;;;;;;0.82;0.82;;;19.70;99.90;;;;;;5094881;28;20028;-80
2022/07/09 04:22:04;;;;;;;0.17;0.17;;;19.90;99.90;;;;;;5096135;28;20050;-80
2022/07/09 04:24:29;;;;;;;2.80;1.52;;;19.90;99.90;;;;;;5094734;28;20051;-80
2022/07/09 04:26:55;;;;;;;0.10;0.10;;;20.00;99.90;;;;;;5096095;28;20099;-81
2022/07/09 04:29:21;;;;;;;0.05;0.05;;;20.10;99.90;;;;;;5096048;28;20021;-80
2022/07/09 04:31:47;;;;;;;0.40;0.40;;;20.10;99.90;;;;;;5095902;28;20020;-81
2022/07/09 04:34:12;;;;;;;0.47;0.47;;;20.10;99.90;;;;;;5095638;28;20060;-82
2022/07/09 04:36:38;;;;;;;0.50;0.50;;;20.20;99.90;;;;;;5095950;28;20030;-79
2022/07/09 04:39:04;;;;;;;0.08;0.03;;;20.20;99.90;;;;;;5095699;28;20069;-79
2022/07/09 04:41:30;;;;;;;0.15;0.15;;;20.20;99.90;;;;;;5095737;28;20019;-81
2022/07/09 04:43:56;;;;;;;0.40;0.40;;;20.30;99.90;;;;;;5094221;28;20143;-80
2022/07/09 04:46:22;;;;;;;0.20;0.20;;;20.30;99.90;;;;;;5094430;28;20382;-80
2022/07/09 04:48:48;;;;;;;0.28;0.28;;;20.20;99.90;;;;;;5094209;28;20024;-79
2022/07/09 04:51:14;;;;;;;1.08;1.08;;;20.20;99.90;;;;;;5095331;28;20432;-80
2022/07/09 04:53:40;;;;;;;1.27;0.10;;;20.20;99.90;;;;;;5111263;28;20024;-81
2022/07/09 04:56:06;;;;;;;0.10;0.10;;;20.30;99.90;;;;;;5095554;28;20027;-81
2022/07/09 04:58:32;;;;;;;0.25;0.25;;;20.20;99.90;;;;;;5094942;28;20028;-81
2022/07/09 05:00:58;;;;;;;0.10;0.10;;;20.30;99.90;;;;;;5093397;28;20478;-81
2022/07/09 05:03:24;;;;;;;0.52;0.38;;;20.30;99.90;;;;;;5093680;28;20031;-80
2022/07/09 05:05:51;;;;;;;0.15;0.15;;;20.40;99.90;;;;;;5095205;28;20442;-80
2022/07/09 05:08:17;;;;;;;0.15;0.15;;;20.50;99.90;;;;;;5093834;28;20031;-80
2022/07/09 05:10:43;;;;;;;0.47;0.47;;;20.60;99.90;;;;;;5095269;28;20062;-81
2022/07/09 05:13:09;;;;;;;0.30;0.30;;;20.70;99.90;;;;;;5110816;28;20425;-81
2022/07/09 05:15:34;;;;;;;0.00;0.00;;;20.70;99.90;;;;;;5110760;28;20027;-82
2022/07/09 05:18:00;;;;;;;1.30;0.85;;;20.80;99.90;;;;;;5110670;28;20051;-80
2022/07/09 05:20:26;;;;;;;0.40;0.25;;;20.90;99.90;;;;;;5094840;28;20032;-82
2022/07/09 05:22:52;;;;;;;0.10;0.10;;;21.00;99.90;;;;;;5093585;28;20588;-80
2022/07/09 05:25:17;;;;;;;0.25;0.25;;;21.00;99.90;;;;;;5095060;28;20027;-81
2022/07/09 05:27:46;;;;;;;0.40;0.40;;;21.20;99.90;;;;;;5092735;28;20413;-81
2022/07/09 05:30:14;;;;;;;0.00;0.00;;;21.20;99.90;;;;;;5093647;28;20059;-81
2022/07/09 05:32:41;;;;;;;0.60;0.60;;;21.30;99.90;;;;;;5093413;28;20035;-81
2022/07/09 05:35:07;;;;;;;0.32;0.32;;;21.20;99.90;;;;;;5094716;28;20533;-80
2022/07/09 05:37:33;;;;;;;0.30;0.30;;;21.20;99.90;;;;;;5093255;28;20482;-81
2022/07/09 05:40:00;;;;;;;0.00;0.00;;;21.20;99.90;;;;;;5093341;28;20031;-81
2022/07/09 06:53:07;;;;;;;0.38;0.38;;;22.30;98.70;;;;;;5111371;27;20947;-80
2022/07/09 06:55:33;;;;;;;0.10;0.10;;;22.30;98.90;;;;;;5110039;28;20028;-80
2022/07/09 06:57:59;;;;;;;0.10;0.10;;;22.30;98.80;;;;;;5111252;28;20015;-80
2022/07/09 07:00:25;;;;;;;0.17;0.17;;;22.40;98.40;;;;;;5110013;28;20107;-79
2022/07/09 07:02:51;;;;;;;0.57;0.57;;;22.50;98.50;;;;;;5111349;28;20062;-79
2022/07/09 07:05:16;;;;;;;0.10;0.10;;;22.50;98.60;;;;;;5111238;28;20070;-78
2022/07/09 07:07:42;;;;;;;0.60;0.45;;;22.40;98.50;;;;;;5109883;28;20019;-79
2022/07/09 07:10:08;;;;;;;0.10;0.10;;;22.40;98.70;;;;;;5109629;28;20529;-79
2022/07/09 07:12:34;;;;;;;0.32;0.32;;;22.40;98.80;;;;;;5110413;28;20414;-78
2022/07/09 07:15:00;;;;;;;1.70;0.55;;;22.50;98.80;;;;;;5109516;28;20035;-80
2022/07/09 07:17:26;;;;;;;0.10;0.10;;;22.60;98.70;;;;;;5109693;28;20019;-79
2022/07/09 07:19:51;;;;;;;0.73;0.32;;;22.70;98.50;;;;;;5107017;28;20020;-82
2022/07/09 07:22:17;;;;;;;0.20;0.20;;;22.60;98.90;;;;;;5109554;28;20024;-80
2022/07/09 07:24:43;;;;;;;0.20;0.20;;;22.60;98.90;;;;;;5110815;28;20493;-84
2022/07/09 07:27:08;;;;;;;0.52;0.52;;;22.60;98.90;;;;;;5110723;28;20035;-80
2022/07/09 07:29:34;;;;;;;6.43;0.73;;;22.50;98.80;;;;;;5110811;28;20032;-83
2022/07/09 07:31:59;;;;;;;0.30;0.30;;;22.40;99.40;;;;;;5109259;28;20028;-81
2022/07/09 07:34:25;;;;;;;1.48;0.90;;;22.40;99.50;;;;;;5110621;28;20027;-80
2022/07/09 07:36:51;;;;;;;0.50;0.50;;;22.30;99.90;;;;;;5109426;28;20054;-82
2022/07/09 07:39:21;;;;;;;0.65;0.65;;;22.40;99.70;;;;;;5109425;28;20073;-81
2022/07/09 07:41:47;;;;;;;0.45;0.45;;;22.30;99.70;;;;;;5110549;28;20020;-81
2022/07/09 07:44:13;;;;;;;0.15;0.15;;;22.10;99.70;;;;;;5109294;28;20032;-81
2022/07/09 07:46:38;;;;;;;0.70;0.70;;;22.00;99.90;;;;;;5110366;28;20027;-81
2022/07/09 07:49:04;;;;;;;0.85;0.85;;;22.10;99.90;;;;;;5109423;28;20028;-86
2022/07/09 07:51:30;;;;;;;0.95;0.95;;;22.10;99.90;;;;;;5109054;28;20052;-83
2022/07/09 07:53:55;;;;;;;2.05;1.50;;;22.00;99.90;;;;;;5109213;28;20019;-86
2022/07/09 07:56:22;;;;;;;0.63;0.63;;;21.90;99.90;;;;;;5110278;28;20024;-85
2022/07/09 07:58:47;;;;;;;0.20;0.20;;;21.90;99.90;;;;;;5109088;28;20023;-84
2022/07/09 08:01:13;;;;;;;2.08;1.85;;;21.90;99.90;;;;;;5108865;28;20474;-83
2022/07/09 08:03:39;;;;;;;0.63;0.63;;;21.90;99.90;;;;;;5101532;28;20583;-82
2022/07/09 08:06:07;;;;;;;0.10;0.10;;;22.10;99.90;;;;;;5096962;28;20081;-81
2022/07/09 08:08:33;;;;;;;0.47;0.47;;;22.40;99.90;;;;;;5096356;28;20024;-81
2022/07/09 08:10:59;;;;;;;0.15;0.15;;;22.60;98.40;;;;;;5096340;28;20107;-80
2022/07/09 08:13:26;;;;;;;0.45;0.45;;;22.70;97.60;;;;;;5094899;28;20074;-79
2022/07/09 08:15:52;;;;;;;0.10;0.10;;;22.90;97.30;;;;;;5096554;28;20528;-77
2022/07/09 08:18:17;;;;;;;0.25;0.25;;;23.10;96.80;;;;;;5096428;28;20036;-76
2022/07/09 08:20:43;;;;;;;0.28;0.28;;;23.00;96.90;;;;;;5096075;28;20516;-77
2022/07/09 08:23:10;;;;;;;0.20;0.20;;;23.30;97.00;;;;;;5096176;28;20023;-77
2022/07/09 08:25:36;;;;;;;0.68;0.63;;;23.30;96.60;;;;;;5096059;28;20023;-76
2022/07/09 08:28:02;;;;;;;0.50;0.50;;;23.30;96.30;;;;;;5095752;28;20405;-77
2022/07/09 08:30:28;;;;;;;0.40;0.40;;;23.40;96.20;;;;;;5092396;28;20020;-81
2022/07/09 08:32:53;;;;;;;0.40;0.40;;;23.40;96.10;;;;;;5095900;28;20493;-76
2022/07/09 08:35:19;;;;;;;0.10;0.10;;;23.30;95.90;;;;;;5095997;28;20382;-78
2022/07/09 08:37:45;;;;;;;0.25;0.25;;;23.00;96.20;;;;;;5095796;28;20486;-81
2022/07/09 08:40:11;;;;;;;0.20;0.20;;;23.00;96.10;;;;;;5094616;28;20024;-82
2022/07/09 08:42:37;;;;;;;0.38;0.38;;;23.10;95.70;;;;;;5095751;28;20466;-83
2022/07/09 08:45:07;;;;;;;0.25;0.25;;;23.00;96.10;;;;;;5095812;28;20031;-80
2022/07/09 08:47:34;;;;;;;0.40;0.40;;;23.20;95.90;;;;;;5094419;28;20027;-79
2022/07/09 08:50:01;;;;;;;0.22;0.15;;;23.50;95.40;;;;;;5094374;28;20043;-79
2022/07/09 08:52:28;;;;;;;0.75;0.75;;;23.70;94.00;;;;;;5095423;28;20044;-79
2022/07/09 08:54:54;;;;;;;0.50;0.22;;;23.70;93.80;;;;;;5097899;28;20090;-83
2022/07/09 08:57:19;;;;;;;0.40;0.40;;;24.00;93.90;;;;;;5094289;28;20051;-83
2022/07/09 08:59:45;;;;;;;0.30;0.30;;;24.10;93.10;;;;;;5094406;28;20017;-87
2022/07/09 09:02:13;;;;;;;0.85;0.38;;;24.40;92.80;;;;;;5094602;28;20027;-78
2022/07/09 09:04:39;;;;;;;0.10;0.10;;;24.40;91.90;;;;;;5094298;28;20386;-87
2022/07/09 09:07:16;;;;;;;0.43;0.30;;;24.50;91.90;;;;;;5095222;28;20037;-86
2022/07/09 09:09:42;;;;;;;0.60;0.43;;;24.90;91.50;;;;;;5094214;28;20058;-81
2022/07/09 09:12:08;;;;;;;0.77;0.77;;;25.00;90.70;;;;;;5094425;28;20024;-87
2022/07/09 09:14:34;;;;;;;1.02;0.82;;;25.10;89.30;;;;;;5094215;28;20028;-88
2022/07/09 09:17:09;;;;;;;3.60;3.30;;;25.00;89.30;;;;;;5098660;28;20024;-88
2022/07/09 09:19:35;;;;;;;1.05;1.05;;;25.00;89.40;;;;;;5094691;28;20028;-88
2022/07/09 09:22:01;;;;;;;0.43;0.43;;;24.60;90.30;;;;;;5094379;28;20077;-83
2022/07/09 09:24:29;;;;;;;0.43;0.32;;;24.60;90.10;;;;;;5094396;28;20028;-89
2022/07/09 09:26:58;;;;;;;0.60;0.60;;;24.50;88.20;;;;;;5094077;28;20051;-91
2022/07/09 09:29:24;;;;;;;;;;;24.20;88.90;;;;;;5095681;28;20064;-88
2022/07/09 09:31:50;;;;;;;0.52;0.35;;;24.10;90.00;;;;;;5094548;28;19908;-86
2022/07/09 09:34:17;;;;;;;0.05;0.05;;;24.10;90.00;;;;;;5094941;28;20017;-85
2022/07/09 09:36:45;;;;;;;0.95;0.73;;;24.10;90.30;;;;;;5094089;28;20016;-87
2022/07/09 09:39:19;;;;;;;0.50;0.50;;;23.90;90.10;;;;;;5091192;28;20028;-85
2022/07/09 09:41:51;;;;;;;0.17;0.17;;;23.70;91.30;;;;;;5095046;28;20052;-84
2022/07/09 09:44:20;;;;;;;0.40;0.22;;;23.80;91.20;;;;;;5095012;28;20036;-85
2022/07/09 09:46:47;;;;;;;0.60;0.30;;;23.90;91.10;;;;;;5094847;28;20097;-85
2022/07/09 09:49:15;;;;;;;0.22;0.22;;;24.00;90.70;;;;;;5093537;28;20039;-84
2022/07/09 09:51:50;;;;;;;1.13;0.85;;;24.30;90.70;;;;;;5093196;28;20575;-85
2022/07/09 09:54:20;;;;;;;0.80;0.68;;;24.50;90.40;;;;;;5093437;28;20070;-84
2022/07/09 09:56:47;;;;;;;0.77;0.77;;;24.60;90.10;;;;;;5093106;28;20105;-83
2022/07/09 09:59:12;;;;;;;0.52;0.52;;;24.70;88.60;;;;;;5093102;28;20016;-84
2022/07/09 10:01:40;;;;;;;0.20;0.20;;;25.00;88.20;;;;;;5092933;28;20046;-80
2022/07/09 10:04:06;;;;;;;0.43;0.43;;;25.10;87.30;;;;;;5094302;28;20051;-79
2022/07/09 10:06:33;;;;;;;1.15;0.80;;;25.20;86.80;;;;;;5092919;28;20382;-80
2022/07/09 10:09:01;;;;;;;1.95;1.08;;;25.30;85.30;;;;;;5092901;28;20028;-81
2022/07/09 10:11:41;;;;;;;0.35;0.35;;;25.50;84.30;;;;;;5094028;28;20024;-82
2022/07/09 10:14:14;;;;;;;0.00;0.00;;;25.20;84.00;;;;;;5094009;28;20435;-80
2022/07/09 10:16:40;;;;;;;0.30;0.30;;;25.40;83.00;;;;;;5093971;28;20031;-80
2022/07/09 10:19:06;;;;;;;0.38;0.35;;;25.40;83.30;;;;;;5094113;28;20095;-81
2022/07/09 10:21:37;;;;;;;0.98;0.90;;;25.40;83.10;;;;;;5093906;28;20035;-82
2022/07/09 10:24:04;;;;;;;0.10;0.10;;;25.60;83.40;;;;;;5093955;28;20417;-81
2022/07/09 10:26:42;;;;;;;1.70;0.50;;;25.10;82.60;;;;;;5092273;28;20482;-81
2022/07/09 10:29:20;;;;;;;0.00;0.00;;;25.40;82.70;;;;;;5093738;28;20027;-81
2022/07/09 10:31:47;;;;;;;0.52;0.52;;;25.80;81.90;;;;;;5093622;28;20107;-81
2022/07/09 10:34:32;;;;;;;1.15;1.05;;;26.00;80.80;;;;;;5093796;28;20027;-81
2022/07/09 10:37:02;;;;;;;0.00;0.00;;;26.00;80.90;;;;;;5093752;28;20024;-79
2022/07/09 10:39:29;;;;;;;0.40;0.40;;;26.40;78.80;;;;;;5093612;28;20023;-79
2022/07/09 10:42:03;;;;;;;0.10;0.10;;;26.50;79.20;;;;;;5093702;28;20020;-81
2022/07/09 10:44:39;;;;;;;1.13;0.75;;;26.60;79.10;;;;;;5093767;28;20055;-83
2022/07/09 10:47:05;;;;;;;0.20;0.20;;;26.50;76.10;;;;;;5093690;28;20027;-81
2022/07/09 10:49:33;;;;;;;0.20;0.20;;;26.20;76.30;;;;;;5092072;28;20077;-81
2022/07/09 10:51:59;;;;;;;0.55;0.55;;;26.10;77.30;;;;;;5093362;28;20055;-81
2022/07/09 10:54:26;;;;;;;1.23;0.63;;;26.50;76.80;;;;;;5093587;28;20021;-80
2022/07/09 10:56:53;;;;;;;0.35;0.35;;;26.60;76.20;;;;;;5093607;28;20024;-79
2022/07/09 10:59:19;;;;;;;0.28;0.28;;;26.60;76.40;;;;;;5093347;28;20489;-79
2022/07/09 11:01:45;;;;;;;0.28;0.28;;;27.00;75.70;;;;;;5093473;28;20028;-80
2022/07/09 11:04:14;;;;;;;0.52;0.20;;;27.10;73.50;;;;;;5092155;28;20474;-81
2022/07/09 11:06:46;;;;;;;0.20;0.20;;;27.00;74.20;;;;;;5093356;28;20066;-79
2022/07/09 11:09:13;;;;;;;0.10;0.10;;;26.50;72.90;;;;;;5093452;28;20032;-81
2022/07/09 11:11:42;;;;;;;0.30;0.30;;;26.50;73.20;;;;;;5091962;28;20200;-80
2022/07/09 11:14:09;;;;;;;0.32;0.32;;;26.70;72.60;;;;;;5093325;28;20581;-80
2022/07/09 11:16:35;;;;;;;0.35;0.10;;;26.80;72.90;;;;;;5093242;28;20031;-81
2022/07/09 11:19:15;;;;;;;0.03;0.03;;;26.70;72.80;;;;;;5093554;28;20099;-82
2022/07/09 11:21:42;;;;;;;0.30;0.30;;;26.70;72.80;;;;;;5091891;28;20112;-82
2022/07/09 11:24:23;;;;;;;0.03;0.03;;;26.30;73.70;;;;;;5092906;28;20028;-83
2022/07/09 11:26:48;;;;;;;0.08;0.08;;;26.20;73.40;;;;;;5091909;28;20020;-83
2022/07/09 11:29:16;;;;;;;0.08;0.08;;;26.00;75.10;;;;;;5093217;28;20107;-84
2022/07/09 11:31:52;;;;;;;0.63;0.63;;;25.80;74.00;;;;;;5092089;28;20119;-83
2022/07/09 11:34:19;;;;;;;0.40;0.32;;;25.70;74.70;;;;;;5091892;28;20108;-82
2022/07/09 11:36:51;;;;;;;0.22;0.22;;;25.60;75.50;;;;;;5093117;28;20024;-83
2022/07/09 11:39:25;;;;;;;0.25;0.25;;;25.60;76.10;;;;;;5094806;28;20016;-81
2022/07/09 11:41:51;;;;;;;0.25;0.22;;;25.60;76.70;;;;;;5096940;28;20024;-81
2022/07/09 11:44:24;;;;;;;0.10;0.10;;;25.70;76.40;;;;;;5095672;28;20097;-80
2022/07/09 11:47:15;;;;;;;0.32;0.32;;;25.90;76.00;;;;;;5095471;28;20034;-80
2022/07/09 11:49:42;;;;;;;0.80;0.43;;;26.00;75.00;;;;;;5096725;28;20024;-81
2022/07/09 11:52:24;;;;;;;0.45;0.45;;;26.60;72.60;;;;;;5096361;28;20091;-81
2022/07/09 11:55:02;;;;;;;0.20;0.20;;;26.60;72.50;;;;;;5096916;28;20028;-81
2022/07/09 11:57:29;;;;;;;0.63;0.52;;;27.30;71.00;;;;;;5095410;28;20031;-81
2022/07/09 11:59:55;;;;;;;0.10;0.10;;;27.90;69.30;;;;;;5093899;28;20029;-82
2022/07/09 12:02:32;;;;;;;0.75;0.10;;;28.00;67.50;;;;;;5096511;28;20024;-80
2022/07/09 12:04:59;;;;;;;0.03;0.03;;;28.50;67.90;;;;;;5096593;28;20028;-81
2022/07/09 12:07:25;;;;;;;0.70;0.43;;;28.90;66.20;;;;;;5095237;28;20024;-82
2022/07/09 12:10:04;;;;;;;0.13;0.13;;;29.30;65.60;;;;;;5096345;28;20020;-81
2022/07/09 12:12:31;;;;;;;0.38;0.38;;;28.60;65.80;;;;;;5096293;28;20566;-82
2022/07/09 12:14:56;;;;;;;1.08;0.43;;;28.90;65.70;;;;;;5095060;28;20043;-82
2022/07/09 12:17:30;;;;;;;0.10;0.10;;;29.10;65.40;;;;;;5095023;28;20118;-81
2022/07/09 12:19:57;;;;;;;0.10;0.10;;;28.80;65.50;;;;;;5096283;28;20028;-81
2022/07/09 12:22:24;;;;;;;0.73;0.73;;;28.70;65.60;;;;;;5094760;28;20028;-81
2022/07/09 12:24:51;;;;;;;0.32;0.32;;;29.40;64.90;;;;;;5094900;28;20114;-82
2022/07/09 12:27:17;;;;;;;0.30;0.30;;;29.90;63.30;;;;;;5095967;28;20016;-81
2022/07/09 12:29:43;;;;;;;0.35;0.35;;;29.70;62.80;;;;;;5096037;28;20352;-81
2022/07/09 12:32:09;;;;;;;0.65;0.20;;;30.00;62.50;;;;;;5096058;28;20032;-81
2022/07/09 12:34:35;;;;;;;0.00;0.00;;;30.10;62.70;;;;;;5111631;28;20024;-81
2022/07/09 12:37:01;;;;;;;0.00;0.00;;;30.10;62.50;;;;;;5096207;28;20024;-81
2022/07/09 12:39:26;;;;;;;1.75;0.80;;;29.60;63.10;;;;;;5095887;28;20031;-82
2022/07/09 12:41:52;;;;;;;0.75;0.75;;;30.40;61.50;;;;;;5094265;28;20024;-82
2022/07/09 12:44:18;;;;;;;0.30;0.30;;;30.70;60.50;;;;;;5094519;28;20020;-82
2022/07/09 12:46:43;;;;;;;1.45;0.60;;;30.70;60.00;;;;;;5095869;28;20028;-82
2022/07/09 12:49:09;;;;;;;0.13;0.13;;;30.80;60.30;;;;;;5094327;28;20024;-80
2022/07/09 12:51:34;;;;;;;0.20;0.20;;;30.70;60.10;;;;;;5095440;28;20433;-81
2022/07/09 12:54:00;;;;;;;0.57;0.30;;;30.70;60.70;;;;;;5095709;28;20378;-81
2022/07/09 12:56:26;;;;;;;0.80;0.80;;;30.30;61.30;;;;;;5095351;28;20052;-82
2022/07/09 12:58:52;;;;;;;0.20;0.20;;;30.20;61.10;;;;;;5095418;28;20024;-81
2022/07/09 13:01:18;;;;;;;0.30;0.30;;;30.20;62.30;;;;;;5094230;28;20026;-83
2022/07/09 13:03:43;;;;;;;0.63;0.63;;;30.80;61.00;;;;;;5095314;28;20016;-84
2022/07/09 13:08:53;;;;;;;0.35;0.35;;;31.00;58.70;;;;;;5093713;28;20038;-84
2022/07/09 13:11:19;;;;;;;0.05;0.03;;;30.90;59.40;;;;;;5095208;28;20027;-81
2022/07/09 13:13:44;;;;;;;0.20;0.20;;;30.50;59.70;;;;;;5094016;28;20055;-84
2022/07/09 13:16:10;;;;;;;1.05;1.05;;;30.40;60.20;;;;;;5095059;28;20024;-85
2022/07/09 16:23:39;;;;;;;0.93;0.50;;;23.50;82.20;;;;;;5110631;27;20446;-83
2022/07/09 16:26:05;;;;;;;1.17;0.68;;;23.20;82.60;;;;;;5109483;28;20032;-81
2022/07/09 16:28:30;;;;;;;0.10;0.10;;;23.10;82.60;;;;;;5111127;28;20020;-82
2022/07/09 16:30:56;;;;;;;0.90;0.73;;;23.10;83.00;;;;;;5110533;28;20020;-82
2022/07/09 16:33:22;;;;;;;0.20;0.20;;;23.10;82.70;;;;;;5110279;28;20058;-81
2022/07/09 16:35:47;;;;;;;0.43;0.43;;;23.10;82.90;;;;;;5109323;28;20446;-82
2022/07/09 16:38:13;;;;;;;0.55;0.55;;;23.10;82.60;;;;;;5109784;28;20028;-82
2022/07/09 16:40:40;;;;;;;0.95;0.57;;;23.10;81.90;;;;;;5109792;28;20382;-82
2022/07/09 16:43:06;;;;;;;0.20;0.20;;;23.00;82.10;;;;;;5110941;28;20058;-82
2022/07/09 16:45:32;;;;;;;0.13;0.13;;;23.00;82.30;;;;;;5109484;28;20394;-82
2022/07/09 16:47:57;;;;;;;0.60;0.60;;;23.00;82.80;;;;;;5110923;28;20020;-83
2022/07/09 16:50:23;;;;;;;0.50;0.50;;;23.00;82.70;;;;;;5110985;28;20051;-81
2022/07/09 16:52:49;;;;;;;1.23;1.20;;;23.00;82.30;;;;;;5110900;28;20116;-81
2022/07/09 16:55:15;;;;;;;0.60;0.60;;;23.00;81.30;;;;;;5110770;28;20020;-82
2022/07/09 16:57:42;;;;;;;0.77;0.77;;;23.00;81.50;;;;;;5110835;28;20055;-81
2022/07/09 17:00:08;;;;;;;0.95;0.35;;;23.00;81.00;;;;;;5109434;28;20028;-82
2022/07/09 17:02:34;;;;;;;0.30;0.30;;;22.90;81.40;;;;;;5109276;28;20020;-81
2022/07/09 17:05:00;;;;;;;0.63;0.63;;;22.70;81.70;;;;;;5109338;28;20571;-81